Time;durP1;ratioP1;P1;durP2;ratioP2;P2;SDS_P1;SDS_P2;PMS_P1;PMS_P2;Temp;Humidity;BMP_temperature;BMP_pressure;BME280_temperature;BME280_humidity;BME280_pressure;Samples;Min_cycle;Max_cycle;Signal;HPM_P1;HPM_P2
2023/12/09 00:00:30;;;;;;;38.10;12.55;;;;;;;4.03;100.00;100863.34;6129789;23;20012;-89
2023/12/09 00:03:02;;;;;;;40.08;13.02;;;;;;;4.77;100.00;100982.56;6156163;23;20076;-89
2023/12/09 00:05:27;;;;;;;29.17;11.85;;;;;;;4.44;100.00;100937.75;6156314;23;20367;-88
2023/12/09 00:08:26;;;;;;;34.10;11.70;;;;;;;5.28;100.00;101063.41;6155463;23;20012;-87
2023/12/09 00:10:52;;;;;;;35.17;12.52;;;;;;;4.10;100.00;100885.25;6156036;23;20068;-86
2023/12/09 00:13:17;;;;;;;42.47;12.68;;;;;;;3.93;100.00;100851.78;6156029;23;20006;-85
2023/12/09 00:16:20;;;;;;;32.72;12.15;;;;;;;5.22;100.00;101068.78;6158280;23;20090;-88
2023/12/09 00:18:45;;;;;;;33.20;11.95;;;;;;;3.87;100.00;100846.91;6156097;23;20447;-87
2023/12/09 00:21:19;;;;;;;32.63;11.85;;;;;;;3.83;100.00;100848.72;6129625;23;20005;-85
2023/12/09 00:23:48;;;;;;;35.67;13.05;;;;;;;4.26;100.00;100924.72;6155670;23;20081;-87
2023/12/09 00:26:19;;;;;;;39.10;12.40;;;;;;;4.22;100.00;100910.34;6155957;23;20012;-88
2023/12/09 00:28:45;;;;;;;30.48;11.90;;;;;;;4.29;100.00;100922.03;6155869;23;20029;-87
2023/12/09 00:31:38;;;;;;;36.42;12.82;;;;;;;5.12;100.00;101065.72;6155794;23;20010;-90
2023/12/09 00:34:09;;;;;;;38.38;12.48;;;;;;;3.77;100.00;100855.78;6130000;23;20033;-89
2023/12/09 00:36:46;;;;;;;38.28;12.07;;;;;;;4.24;100.00;100933.34;6155732;23;20009;-87
2023/12/09 00:39:11;;;;;;;39.03;12.32;;;;;;;5.06;100.00;101060.00;6155614;23;20411;-85
2023/12/09 00:41:42;;;;;;;33.63;12.15;;;;;;;3.83;100.00;100858.09;6155400;23;20020;-86
2023/12/09 00:44:20;;;;;;;36.58;12.98;;;;;;;3.91;100.00;100876.53;6156043;23;20372;-86
2023/12/09 00:46:55;;;;;;;36.20;11.60;;;;;;;4.60;100.00;100992.53;6129816;23;20538;-89
2023/12/09 00:49:20;;;;;;;36.90;13.15;;;;;;;5.08;100.00;101071.00;6155702;23;20084;-84
2023/12/09 00:51:46;;;;;;;36.22;11.45;;;;;;;3.70;100.00;100858.53;6129592;23;20085;-84
2023/12/09 00:54:11;;;;;;;35.47;12.50;;;;;;;4.12;100.00;100910.72;6155395;23;20012;-84
2023/12/09 00:56:36;;;;;;;37.42;12.68;;;;;;;4.01;100.00;100900.88;6155601;23;20001;-85
2023/12/09 00:59:02;;;;;;;34.17;12.98;;;;;;;4.10;100.00;100908.25;6155518;23;20064;-83
2023/12/09 01:01:28;;;;;;;31.15;10.80;;;;;;;4.27;100.00;100949.38;6155616;23;20024;-85
2023/12/09 01:04:05;;;;;;;34.03;12.05;;;;;;;4.00;100.00;100902.63;6129650;23;20012;-82
2023/12/09 01:06:31;;;;;;;32.75;12.45;;;;;;;4.38;100.00;100959.22;6128612;23;20005;-85
2023/12/09 01:09:10;;;;;;;39.60;12.75;;;;;;;4.90;100.00;101052.84;6155053;23;20057;-86
2023/12/09 01:11:45;;;;;;;42.47;12.57;;;;;;;3.69;100.00;100869.63;6155314;23;20076;-83
2023/12/09 01:14:11;;;;;;;40.40;13.05;;;;;;;4.29;100.00;100985.94;6155333;23;20008;-83
2023/12/09 01:16:36;;;;;;;33.03;12.07;;;;;;;3.93;100.00;100915.63;6129342;23;20005;-83
2023/12/09 01:19:02;;;;;;;38.35;13.00;;;;;;;4.68;100.00;101030.66;6155183;23;20064;-85
2023/12/09 01:21:27;;;;;;;43.72;13.98;;;;;;;4.21;100.00;100946.19;6155436;23;20002;-84
2023/12/09 01:24:05;;;;;;;36.95;12.98;;;;;;;4.33;100.00;100976.47;6128730;23;20002;-83
2023/12/09 01:26:37;;;;;;;35.88;13.07;;;;;;;3.38;100.00;100831.53;6155093;23;20339;-89
2023/12/09 01:29:03;;;;;;;;;;;;;;;4.68;100.00;101053.66;6129470;23;20017;-87
2023/12/09 01:31:29;;;;;;;37.78;13.57;;;;;;;4.72;100.00;101053.53;6155516;23;19984;-87
2023/12/09 01:34:04;;;;;;;41.47;14.57;;;;;;;3.89;100.00;100920.03;6155168;23;20427;-88
2023/12/09 01:36:48;;;;;;;40.58;13.85;;;;;;;3.31;100.00;100819.84;6155014;23;20001;-88
2023/12/09 01:39:19;;;;;;;47.67;15.73;;;;;;;3.27;100.00;100815.75;6155152;23;20005;-87
2023/12/09 01:41:48;;;;;;;;;;;;;;;4.72;100.00;101052.66;6155466;23;20088;-87
2023/12/09 01:44:19;;;;;;;44.85;13.88;;;;;;;4.20;100.00;100962.44;6155333;23;19909;-89
2023/12/09 01:46:45;;;;;;;38.55;14.07;;;;;;;3.47;100.00;100849.97;6129087;23;20071;-87
2023/12/09 01:49:10;;;;;;;39.30;14.82;;;;;;;3.75;100.00;100873.69;6155570;23;20372;-86
2023/12/09 01:51:45;;;;;;;40.40;15.32;;;;;;;3.68;100.00;100874.78;6155687;23;20020;-86
2023/12/09 01:54:17;;;;;;;34.30;14.23;;;;;;;4.77;100.00;101041.38;6156158;23;20017;-85
2023/12/09 01:56:46;;;;;;;42.60;14.43;;;;;;;4.74;100.00;101028.72;6128739;23;20010;-84
2023/12/09 01:59:12;;;;;;;43.50;14.65;;;;;;;4.58;100.00;101002.00;6155332;23;20005;-84
2023/12/09 02:01:47;;;;;;;43.97;15.63;;;;;;;4.60;100.00;101003.59;6129121;23;20025;-83
2023/12/09 02:04:26;;;;;;;39.75;14.75;;;;;;;3.60;100.00;100831.63;6155251;23;20001;-85
2023/12/09 02:06:52;;;;;;;37.42;14.00;;;;;;;3.39;100.00;100789.78;6154859;23;20226;-86
2023/12/09 02:09:18;;;;;;;38.70;15.20;;;;;;;4.50;100.00;100986.91;6154929;23;20420;-83
2023/12/09 02:12:25;;;;;;;39.45;14.20;;;;;;;4.70;100.00;101018.63;6154890;23;20009;-86
2023/12/09 02:15:03;;;;;;;37.97;13.95;;;;;;;4.67;100.00;101023.88;6012626;23;20102;-83
2023/12/09 02:20:59;;;;;;;36.55;13.90;;;;;;;3.42;100.00;100827.13;6114886;23;20101;-86
2023/12/09 02:23:40;;;;;;;36.95;14.57;;;;;;;3.25;100.00;100792.00;6125488;23;20002;-84
2023/12/09 02:26:16;;;;;;;37.70;14.10;;;;;;;4.17;100.00;100947.22;6125659;23;20006;-85
2023/12/09 02:29:14;;;;;;;32.00;14.85;;;;;;;3.89;100.00;100898.75;6125695;23;20006;-85
2023/12/09 02:32:32;;;;;;;38.65;14.90;;;;;;;4.53;100.00;101006.47;6128251;23;20026;-91
2023/12/09 02:35:34;;;;;;;42.22;15.15;;;;;;;4.48;100.00;101009.16;6127491;23;20013;-90
2023/12/09 02:38:14;;;;;;;;;;;;;;;4.44;100.00;101004.22;6127855;23;20048;-84
2023/12/09 02:41:00;;;;;;;37.70;14.02;;;;;;;3.90;100.00;100915.75;6127303;23;19916;-83
2023/12/09 02:43:32;;;;;;;42.10;13.77;;;;;;;3.04;100.00;100787.56;6126708;23;20037;-85
2023/12/09 02:46:03;;;;;;;40.63;14.10;;;;;;;3.32;100.00;100830.88;6127085;23;20002;-83
2023/12/09 02:48:40;;;;;;;39.67;14.30;;;;;;;3.34;100.00;100817.22;6127279;23;20013;-83
2023/12/09 02:51:07;;;;;;;40.97;14.65;;;;;;;2.95;100.00;100765.78;6127188;23;20024;-90
2023/12/09 02:53:47;;;;;;;40.95;15.05;;;;;;;4.28;100.00;100993.69;6127326;23;20064;-86
2023/12/09 02:56:12;;;;;;;36.63;13.00;;;;;;;2.86;100.00;100755.88;6126992;23;20428;-91
2023/12/09 02:58:41;;;;;;;32.90;13.38;;;;;;;2.75;100.00;100742.59;6127080;23;20009;-83
2023/12/09 03:01:15;;;;;;;37.50;14.05;;;;;;;3.40;100.00;100850.16;6101784;23;20064;-83
2023/12/09 03:03:58;;;;;;;39.20;13.82;;;;;;;4.27;100.00;100977.50;6100812;23;20014;-83
2023/12/09 03:06:24;;;;;;;33.30;13.70;;;;;;;3.21;100.00;100795.50;6127096;23;20061;-83
2023/12/09 03:08:49;;;;;;;47.03;14.05;;;;;;;3.82;100.00;100904.97;6127255;23;20009;-84
2023/12/09 03:11:23;;;;;;;40.42;13.68;;;;;;;2.82;100.00;100726.22;6127300;23;19998;-88
2023/12/09 03:13:48;;;;;;;33.35;14.25;;;;;;;3.21;100.00;100802.34;6127270;23;20025;-86
2023/12/09 03:16:13;;;;;;;41.95;13.82;;;;;;;3.60;100.00;100864.81;6127097;23;20061;-89
2023/12/09 03:18:38;;;;;;;45.78;14.07;;;;;;;3.78;100.00;100877.88;6127159;23;20076;-83
2023/12/09 03:21:16;;;;;;;64.85;14.90;;;;;;;3.15;100.00;100794.00;6101698;23;20009;-84
2023/12/09 03:23:49;;;;;;;37.15;13.10;;;;;;;2.88;100.00;100719.22;6127191;23;20553;-83
2023/12/09 03:26:18;;;;;;;49.95;15.15;;;;;;;4.20;100.00;100972.66;6126785;23;20002;-84
2023/12/09 03:28:49;;;;;;;44.25;14.18;;;;;;;3.72;100.00;100846.53;6127041;23;20002;-84
2023/12/09 03:31:27;;;;;;;48.10;14.20;;;;;;;2.93;100.00;100767.50;6126982;23;20002;-85
2023/12/09 03:33:53;;;;;;;44.92;12.98;;;;;;;3.06;100.00;100739.91;6126991;23;20324;-84
2023/12/09 03:36:18;;;;;;;48.13;13.75;;;;;;;4.21;100.00;100943.66;6100974;23;20021;-86
2023/12/09 03:38:44;;;;;;;36.58;13.15;;;;;;;3.34;100.00;100773.81;6126979;23;20049;-83
2023/12/09 03:41:28;;;;;;;44.00;13.38;;;;;;;4.38;100.00;100950.72;6126641;23;20069;-84
2023/12/09 03:43:53;;;;;;;39.13;13.63;;;;;;;3.46;100.00;100803.19;6126568;23;20076;-84
2023/12/09 03:46:19;;;;;;;37.92;13.07;;;;;;;3.14;100.00;100756.59;6126696;23;20044;-83
2023/12/09 03:48:44;;;;;;;44.22;12.85;;;;;;;3.37;100.00;100795.84;6126848;23;20001;-83
2023/12/09 03:51:09;;;;;;;38.67;12.15;;;;;;;2.98;100.00;100729.94;6139193;23;20076;-82
2023/12/09 03:53:42;;;;;;;34.17;12.55;;;;;;;4.31;100.00;100947.53;6129556;23;20100;-83
2023/12/09 03:56:17;;;;;;;38.97;12.07;;;;;;;3.33;100.00;100792.53;6155914;23;20013;-83
2023/12/09 03:58:55;;;;;;;40.30;11.95;;;;;;;3.86;100.00;100871.63;6156336;23;20001;-85
2023/12/09 04:01:29;;;;;;;39.15;11.90;;;;;;;3.34;100.00;100785.72;6156038;23;20323;-84
2023/12/09 04:03:55;;;;;;;37.15;12.18;;;;;;;3.57;100.00;100820.69;6156401;23;20009;-86
2023/12/09 04:06:35;;;;;;;40.40;11.88;;;;;;;3.24;100.00;100771.59;6155729;23;20452;-86
2023/12/09 04:09:11;;;;;;;42.33;12.23;;;;;;;2.86;100.00;100703.13;6155941;23;20021;-84
2023/12/09 04:11:48;;;;;;;37.92;11.85;;;;;;;2.75;100.00;100691.59;6155660;23;20420;-85
2023/12/09 04:14:26;;;;;;;31.75;10.85;;;;;;;3.60;100.00;100828.25;6129812;23;20451;-84
2023/12/09 04:17:03;;;;;;;35.97;11.70;;;;;;;2.72;100.00;100687.44;6156149;23;20056;-84
2023/12/09 04:19:29;;;;;;;39.60;12.02;;;;;;;4.03;100.00;100899.09;6155670;23;19997;-85
2023/12/09 04:22:00;;;;;;;39.55;11.27;;;;;;;4.05;100.00;100899.91;6155900;23;20060;-85
2023/12/09 04:25:01;;;;;;;35.33;11.68;;;;;;;4.16;100.00;100913.16;6155571;23;20036;-85
2023/12/09 04:27:26;;;;;;;37.63;11.57;;;;;;;3.27;100.00;100749.38;6155305;23;20424;-86
2023/12/09 04:29:51;;;;;;;41.20;13.35;;;;;;;3.24;100.00;100756.28;6130026;23;20016;-85
2023/12/09 04:34:58;;;;;;;37.65;12.55;;;;;;;2.85;100.00;100673.44;6155337;23;20083;-84
2023/12/09 04:37:36;;;;;;;39.97;11.82;;;;;;;2.84;100.00;100678.53;6155716;23;20013;-87
2023/12/09 04:40:13;;;;;;;41.13;11.70;;;;;;;2.81;100.00;100664.19;6155535;23;20001;-85
2023/12/09 04:42:39;;;;;;;36.78;11.60;;;;;;;3.70;100.00;100810.00;6153945;23;20420;-88
2023/12/09 04:45:06;;;;;;;33.50;10.85;;;;;;;3.59;100.00;100799.31;6126308;23;20013;-84
2023/12/09 04:47:46;;;;;;;35.92;10.98;;;;;;;3.64;100.00;100802.56;6125942;23;20097;-88
2023/12/09 04:53:03;;;;;;;33.63;11.48;;;;;;;3.70;100.00;100801.50;6128246;23;20033;-85
2023/12/09 04:55:44;;;;;;;47.25;11.85;;;;;;;4.23;100.00;100873.72;6125913;23;20010;-88
2023/12/09 04:58:27;;;;;;;38.67;10.80;;;;;;;3.11;100.00;100690.38;6125858;23;20380;-86
2023/12/09 05:00:52;;;;;;;39.15;11.40;;;;;;;2.87;100.00;100655.50;6125981;23;20029;-87
2023/12/09 05:03:26;;;;;;;34.72;11.05;;;;;;;2.85;100.00;100644.50;6126062;23;20420;-88
2023/12/09 05:06:05;;;;;;;35.90;10.48;;;;;;;3.73;100.00;100804.78;6126788;23;20037;-88
2023/12/09 05:08:36;;;;;;;38.85;11.65;;;;;;;2.96;100.00;100674.78;6127506;23;20005;-90
2023/12/09 05:11:11;;;;;;;38.65;10.68;;;;;;;4.16;100.00;100859.47;6125959;23;20336;-87
2023/12/09 05:13:59;;;;;;;32.20;10.63;;;;;;;4.21;100.00;100859.28;6125996;23;20084;-88
2023/12/09 05:16:33;;;;;;;46.15;12.07;;;;;;;3.64;100.00;100777.03;6125940;23;20009;-83
2023/12/09 05:18:59;;;;;;;33.40;10.50;;;;;;;3.62;100.00;100770.28;6124644;23;20005;-90
2023/12/09 05:21:24;;;;;;;35.22;10.82;;;;;;;2.84;100.00;100647.94;6125864;23;20034;-89
2023/12/09 05:24:04;;;;;;;38.83;10.90;;;;;;;2.63;100.00;100625.72;6124773;23;20333;-87
2023/12/09 05:26:38;;;;;;;39.22;9.90;;;;;;;3.76;100.00;100808.13;6125927;23;20371;-89
2023/12/09 05:29:18;;;;;;;41.13;12.82;;;;;;;3.57;100.00;100767.91;6125711;23;20002;-89
2023/12/09 05:31:44;;;;;;;32.05;10.77;;;;;;;3.99;100.00;100826.03;6126598;23;20328;-89
2023/12/09 05:34:12;;;;;;;37.15;10.18;;;;;;;3.40;100.00;100732.75;6125975;23;20081;-88
2023/12/09 05:36:44;;;;;;;31.95;10.13;;;;;;;4.12;100.00;100844.28;6124285;23;20010;-88
2023/12/09 05:39:12;;;;;;;38.45;10.73;;;;;;;4.01;100.00;100827.63;6125571;23;20013;-85
2023/12/09 05:41:55;;;;;;;42.28;11.65;;;;;;;3.42;100.00;100720.75;6125526;23;20002;-87
2023/12/09 05:44:21;;;;;;;35.65;10.63;;;;;;;3.66;100.00;100751.44;6125460;23;20009;-90
2023/12/09 05:46:58;;;;;;;37.63;10.27;;;;;;;3.92;100.00;100804.13;6124024;23;20014;-84
2023/12/09 05:49:33;;;;;;;38.03;11.40;;;;;;;3.00;100.00;100651.66;6125680;23;20013;-84
2023/12/09 05:51:58;;;;;;;29.15;9.82;;;;;;;3.26;100.00;100693.31;6125329;23;20014;-88
2023/12/09 05:54:33;;;;;;;31.90;9.95;;;;;;;3.46;100.00;100734.28;6125770;23;20153;-85
2023/12/09 05:56:58;;;;;;;30.00;9.93;;;;;;;3.07;100.00;100659.94;6125613;23;20516;-87
2023/12/09 05:59:36;;;;;;;38.22;10.35;;;;;;;2.89;100.00;100646.09;6125413;23;20046;-86
2023/12/09 06:02:03;;;;;;;35.53;10.10;;;;;;;3.15;100.00;100669.00;6124165;23;20353;-85
2023/12/09 06:04:37;;;;;;;35.03;10.13;;;;;;;3.58;100.00;100746.59;6125889;23;20056;-84
2023/12/09 06:07:03;;;;;;;36.85;10.65;;;;;;;3.92;100.00;100791.34;6125986;23;20076;-88
2023/12/09 06:09:29;;;;;;;27.65;9.15;;;;;;;3.08;100.00;100657.31;6127792;23;20006;-86
2023/12/09 06:11:54;;;;;;;35.03;9.57;;;;;;;3.50;100.00;100725.59;6127518;23;19997;-84
2023/12/09 06:14:35;;;;;;;32.90;9.85;;;;;;;2.62;100.00;100573.91;6127470;23;20072;-82
2023/12/09 06:17:00;;;;;;;29.42;8.80;;;;;;;3.11;100.00;100651.28;6126386;23;20336;-87
2023/12/09 06:19:28;;;;;;;34.63;9.23;;;;;;;3.59;100.00;100722.72;6127691;23;20006;-84
2023/12/09 06:21:55;;;;;;;30.67;9.50;;;;;;;4.13;100.00;100800.81;6127652;23;19998;-88
2023/12/09 06:24:20;;;;;;;36.85;9.52;;;;;;;3.83;100.00;100746.53;6126123;23;20013;-88
2023/12/09 06:26:46;;;;;;;31.60;8.95;;;;;;;4.11;100.00;100794.06;6127533;23;20081;-90
2023/12/09 06:29:14;;;;;;;25.55;8.48;;;;;;;4.10;100.00;100790.69;6125639;23;19998;-89
2023/12/09 06:34:13;;;;;;;29.42;8.27;;;;;;;2.82;100.00;100573.22;6157331;23;20351;-88
2023/12/09 06:36:50;;;;;;;32.78;9.27;;;;;;;3.60;100.00;100703.97;6157070;23;20013;-82
2023/12/09 06:39:15;;;;;;;29.05;10.32;;;;;;;3.90;100.00;100752.25;6157299;23;20005;-88
2023/12/09 06:41:41;;;;;;;29.98;9.07;;;;;;;3.70;100.00;100709.56;6157122;23;20009;-88
2023/12/09 06:44:07;;;;;;;32.05;8.38;;;;;;;3.40;100.00;100647.69;6157044;23;20009;-87
2023/12/09 06:46:36;;;;;;;35.40;8.52;;;;;;;3.58;100.00;100667.44;6156809;23;20368;-87
2023/12/09 06:49:01;;;;;;;36.38;9.75;;;;;;;4.12;100.00;100757.41;6156983;23;20005;-86
2023/12/09 06:51:26;;;;;;;28.10;8.00;;;;;;;4.10;100.00;100754.91;6157009;23;20024;-84
2023/12/09 06:53:52;;;;;;;34.35;8.55;;;;;;;4.08;100.00;100753.31;6156630;23;20036;-83
2023/12/09 06:56:18;;;;;;;28.33;9.60;;;;;;;4.10;100.00;100746.41;6130777;23;20045;-85
2023/12/09 06:58:44;;;;;;;34.13;9.20;;;;;;;4.08;100.00;100730.31;6157037;23;20056;-84
2023/12/09 07:01:17;;;;;;;26.13;8.43;;;;;;;4.07;100.00;100716.72;6156223;23;20002;-82
2023/12/09 07:03:42;;;;;;;25.20;8.60;;;;;;;3.99;100.00;100703.38;6130417;23;20249;-82
2023/12/09 07:06:08;;;;;;;29.13;8.35;;;;;;;3.63;100.00;100650.22;6156366;23;20487;-84
2023/12/09 07:08:33;;;;;;;27.05;8.10;;;;;;;3.81;100.00;100665.75;6156709;23;20006;-84
2023/12/09 07:10:59;;;;;;;32.28;9.02;;;;;;;4.03;100.00;100684.47;6156882;23;20006;-82
2023/12/09 07:13:24;;;;;;;29.60;8.45;;;;;;;4.02;100.00;100664.94;6156519;23;20006;-83
2023/12/09 07:15:50;;;;;;;24.40;7.90;;;;;;;3.88;100.00;100629.72;6155894;23;20185;-83
2023/12/09 07:18:15;;;;;;;28.05;8.85;;;;;;;4.14;100.00;100664.47;6156740;23;20017;-83
2023/12/09 07:20:41;;;;;;;23.33;7.93;;;;;;;2.81;100.00;100447.44;6155715;23;20438;-84
2023/12/09 07:23:06;;;;;;;27.45;8.32;;;;;;;4.07;100.00;100652.81;6157129;23;20020;-82
2023/12/09 07:25:34;;;;;;;33.63;9.18;;;;;;;3.30;100.00;100526.41;6156795;23;20006;-83
2023/12/09 07:27:59;;;;;;;27.52;9.27;;;;;;;3.27;100.00;100513.78;6156209;23;20013;-85
2023/12/09 07:30:25;;;;;;;21.90;7.75;;;;;;;2.84;100.00;100437.13;6130072;23;20020;-84
2023/12/09 07:32:56;;;;;;;29.05;7.55;;;;;;;4.21;100.00;100659.94;6156566;23;20073;-83
2023/12/09 07:35:22;;;;;;;;;;;;;;;4.32;100.00;100668.00;6157044;23;20455;-82
2023/12/09 07:37:47;;;;;;;23.13;7.03;;;;;;;3.87;100.00;100605.06;6156442;23;19905;-85
2023/12/09 07:40:12;;;;;;;21.95;7.40;;;;;;;4.37;100.00;100665.28;6156639;23;20009;-82
2023/12/09 07:42:38;;;;;;;24.90;8.05;;;;;;;4.28;100.00;100640.94;6156339;23;20330;-86
2023/12/09 07:45:04;;;;;;;18.20;7.75;;;;;;;4.31;100.00;100644.19;6156107;23;20371;-85
2023/12/09 07:50:07;;;;;;;21.25;7.38;;;;;;;4.23;100.00;100618.13;6127697;23;20030;-86
2023/12/09 07:52:32;;;;;;;25.13;8.13;;;;;;;4.49;100.00;100644.34;6126753;23;20016;-86
2023/12/09 07:54:58;;;;;;;24.00;7.22;;;;;;;4.38;100.00;100610.72;6100776;23;20385;-84
2023/12/09 07:57:38;;;;;;;21.83;7.20;;;;;;;3.74;100.00;100502.56;6126538;23;20515;-85
2023/12/09 08:00:04;;;;;;;22.60;7.32;;;;;;;4.59;100.00;100622.59;6100598;23;20006;-84
2023/12/09 08:02:35;;;;;;;27.35;9.20;;;;;;;4.02;100.00;100519.31;6126466;23;20432;-89
2023/12/09 08:05:01;;;;;;;24.00;8.82;;;;;;;4.07;100.00;100517.41;6126905;23;20093;-83
2023/12/09 08:07:31;;;;;;;28.23;8.00;;;;;;;3.86;100.00;100480.78;6101105;23;20009;-86
2023/12/09 08:10:00;;;;;;;24.23;8.05;;;;;;;3.44;100.00;100394.84;6126775;23;20041;-83
2023/12/09 08:12:36;;;;;;;;;;;;;;;;;;;;;
2023/12/09 08:15:02;;;;;;;24.80;7.30;;;;;;;4.95;100.00;100606.63;6126362;23;20092;-84
2023/12/09 08:17:27;;;;;;;21.77;7.68;;;;;;;4.72;100.00;100561.53;6126090;23;20033;-86
2023/12/09 08:19:55;;;;;;;25.67;7.68;;;;;;;5.11;100.00;100611.00;6126923;23;20002;-85
2023/12/09 08:22:30;;;;;;;20.90;7.00;;;;;;;4.56;100.00;100510.22;6126905;23;20010;-85
2023/12/09 08:24:55;;;;;;;23.20;6.45;;;;;;;4.20;100.00;100436.78;6126468;23;20009;-82
2023/12/09 08:27:24;;;;;;;19.60;6.78;;;;;;;4.24;100.00;100447.72;6126296;23;20428;-87
2023/12/09 08:30:03;;;;;;;20.48;5.90;;;;;;;5.26;100.00;100616.34;6100891;23;20013;-85
2023/12/09 08:32:29;;;;;;;19.38;6.53;;;;;;;5.29;100.00;100613.63;6126619;23;20008;-84
2023/12/09 08:34:57;;;;;;;18.05;5.95;;;;;;;4.80;100.00;100518.56;6100672;23;20440;-83
2023/12/09 08:37:42;;;;;;;21.63;6.03;;;;;;;5.13;100.00;100559.75;6101265;23;20001;-83
2023/12/09 08:40:10;;;;;;;22.45;7.25;;;;;;;5.45;100.00;100597.53;6099760;23;20006;-85
2023/12/09 08:42:40;;;;;;;19.88;5.63;;;;;;;5.42;100.00;100576.34;6126168;23;20002;-83
2023/12/09 08:45:11;;;;;;;20.15;5.15;;;;;;;5.04;100.00;100504.69;6126550;23;20053;-83
2023/12/09 08:47:41;;;;;;;18.25;5.65;;;;;;;5.31;100.00;100535.88;6122481;23;20018;-83
2023/12/09 08:50:30;;;;;;;22.48;7.00;;;;;;;5.55;100.00;100561.25;6125893;23;20010;-80
2023/12/09 08:53:18;;;;;;;18.83;4.88;;;;;;;5.74;100.00;100579.97;6099763;23;20006;-80
2023/12/09 08:55:44;;;;;;;17.80;4.88;;;;;;;4.38;100.00;100347.41;6126091;23;20475;-81
2023/12/09 08:58:12;;;;;;;18.13;5.22;;;;;;;5.33;100.00;100505.91;6125983;23;20034;-82
2023/12/09 09:00:38;;;;;;;16.60;5.25;;;;;;;4.80;100.00;100417.06;6125766;23;20376;-82
2023/12/09 09:03:03;;;;;;;15.65;4.30;;;;;;;5.11;100.00;100442.09;6125641;23;20006;-81
2023/12/09 09:05:29;;;;;;;14.60;4.20;;;;;;;5.92;100.00;100566.34;6125749;23;20072;-81
2023/12/09 09:08:09;;;;;;;13.07;3.75;;;;;;;5.57;100.00;100492.84;6125638;23;20017;-81
2023/12/09 09:10:35;;;;;;;14.98;4.53;;;;;;;5.90;100.00;100523.69;6125873;23;20100;-82
2023/12/09 09:13:42;;;;;;;12.55;4.22;;;;;;;5.88;100.00;100495.59;6125484;23;20064;-81
2023/12/09 09:16:15;;;;;;;17.88;4.32;;;;;;;5.83;100.00;100474.50;6125303;23;20038;-81
2023/12/09 09:18:42;;;;;;;15.90;3.70;;;;;;;6.12;100.00;100510.72;6125436;23;20387;-83
2023/12/09 09:21:07;;;;;;;15.65;4.10;;;;;;;4.78;100.00;100277.34;6125285;23;20341;-81
2023/12/09 09:23:36;;;;;;;13.13;3.75;;;;;;;5.00;100.00;100295.88;6128110;23;20022;-82
2023/12/09 09:26:07;;;;;;;15.73;4.20;;;;;;;5.20;100.00;100317.94;6125890;23;20077;-83
2023/12/09 09:28:34;;;;;;;11.23;3.80;;;;;;;5.37;100.00;100340.16;6125585;23;20028;-81
2023/12/09 09:31:11;;;;;;;14.30;3.63;;;;;;;6.00;100.00;100430.97;6125691;23;20429;-82
2023/12/09 09:33:42;;;;;;;12.65;3.78;;;;;;;6.22;100.00;100458.06;6125459;23;20010;-83
2023/12/09 09:36:20;;;;;;;12.10;3.08;;;;;;;6.29;100.00;100469.66;6125556;23;20005;-83
2023/12/09 09:38:47;;;;;;;10.15;4.00;;;;;;;6.32;100.00;100470.34;6125586;23;20058;-82
2023/12/09 09:41:21;;;;;;;17.17;3.60;;;;;;;5.77;100.00;100377.41;6125440;23;20081;-81
2023/12/09 09:43:58;;;;;;;14.25;3.53;;;;;;;6.33;100.00;100461.75;6125543;23;20393;-81
2023/12/09 09:46:25;;;;;;;15.57;3.60;;;;;;;6.41;100.00;100455.41;6125329;23;20409;-83
2023/12/09 09:48:51;;;;;;;12.52;3.55;;;;;;;6.18;100.00;100407.84;6125378;23;20012;-80
2023/12/09 09:51:26;;;;;;;14.70;3.55;;;;;;;6.47;100.00;100457.63;6125966;23;20052;-81
2023/12/09 09:54:14;;;;;;;12.70;3.63;;;;;;;6.51;100.00;100446.31;6125786;23;20052;-82
2023/12/09 09:56:41;;;;;;;13.52;3.58;;;;;;;6.52;100.00;100438.53;6125449;23;20002;-81
2023/12/09 09:59:06;;;;;;;10.00;3.38;;;;;;;6.22;100.00;100381.16;6125884;23;20010;-82
2023/12/09 10:01:37;;;;;;;12.13;3.28;;;;;;;6.52;100.00;100418.00;6126014;23;20179;-82
2023/12/09 10:04:03;;;;;;;9.27;3.20;;;;;;;6.52;100.00;100404.34;6125230;23;20006;-81
2023/12/09 10:06:29;;;;;;;12.60;2.78;;;;;;;6.43;100.00;100350.97;6125522;23;20013;-81
2023/12/09 10:08:55;;;;;;;11.38;2.60;;;;;;;6.82;100.00;100396.75;6125706;23;20442;-80
2023/12/09 10:11:20;;;;;;;13.65;3.28;;;;;;;6.87;100.00;100381.91;6125491;23;20065;-80
2023/12/09 10:13:46;;;;;;;17.08;4.18;;;;;;;6.74;100.00;100345.84;6125406;23;20029;-81
2023/12/09 10:16:12;;;;;;;10.77;3.35;;;;;;;6.77;100.00;100340.53;6125399;23;20054;-78
2023/12/09 10:18:43;;;;;;;14.43;3.22;;;;;;;6.96;100.00;100344.66;6124241;23;20012;-81
2023/12/09 10:21:09;;;;;;;11.35;3.30;;;;;;;6.84;100.00;100313.63;6125428;23;20013;-81
2023/12/09 10:23:35;;;;;;;10.98;3.20;;;;;;;6.89;100.00;100308.25;6124578;23;20018;-83
2023/12/09 10:26:02;;;;;;;8.48;2.85;;;;;;;7.03;100.00;100315.16;6125170;23;20022;-84
2023/12/09 10:28:28;;;;;;;11.30;2.65;;;;;;;7.05;100.00;100310.78;6125831;23;20014;-83
2023/12/09 10:30:53;;;;;;;9.93;2.70;;;;;;;7.07;100.00;100320.03;6099312;23;20006;-84
2023/12/09 10:33:20;;;;;;;10.75;2.60;;;;;;;6.68;100.00;100240.16;6125441;23;20080;-85
2023/12/09 10:35:45;;;;;;;10.82;2.60;;;;;;;7.06;100.00;100287.56;6125481;23;20492;-83
2023/12/09 10:38:17;;;;;;;12.00;2.72;;;;;;;6.06;100.00;100129.91;6125303;23;20092;-79
2023/12/09 10:40:43;;;;;;;11.38;2.90;;;;;;;6.70;100.00;100225.50;6125492;23;20006;-79
2023/12/09 10:43:08;;;;;;;9.27;3.25;;;;;;;6.76;100.00;100228.53;6125418;23;20020;-80
2023/12/09 10:45:34;;;;;;;11.70;3.60;;;;;;;6.84;100.00;100240.94;6125291;23;20006;-81
2023/12/09 10:47:59;;;;;;;13.70;7.20;;;;;;;6.89;100.00;100232.09;6125429;23;20077;-82
2023/12/09 10:50:25;;;;;;;14.45;4.22;;;;;;;6.73;100.00;100185.09;6125849;23;20006;-84
2023/12/09 10:52:50;;;;;;;17.35;7.50;;;;;;;6.97;100.00;100205.13;6127630;23;20076;-77
2023/12/09 10:55:16;;;;;;;12.43;6.40;;;;;;;6.81;100.00;100174.41;6126323;23;20069;-77
2023/12/09 10:57:43;;;;;;;11.73;3.97;;;;;;;7.01;100.00;100204.88;6126876;23;20016;-80
2023/12/09 11:00:10;;;;;;;11.82;2.63;;;;;;;6.98;100.00;100194.78;6126075;23;20010;-80
2023/12/09 11:02:44;;;;;;;9.15;3.15;;;;;;;6.92;100.00;100187.44;6101139;23;20080;-81
2023/12/09 11:05:10;;;;;;;9.57;3.53;;;;;;;6.11;100.00;100063.84;6126186;23;20009;-79
2023/12/09 11:07:37;;;;;;;13.07;3.38;;;;;;;6.39;100.00;100114.41;6127046;23;20022;-82
2023/12/09 11:10:11;;;;;;;13.40;2.95;;;;;;;6.90;100.00;100182.41;6118869;23;20088;-82
2023/12/09 11:12:44;;;;;;;8.95;2.95;;;;;;;6.30;100.00;100069.59;6100238;23;20056;-83
2023/12/09 11:15:13;;;;;;;12.23;2.80;;;;;;;6.88;100.00;100148.31;6127251;23;20002;-83
2023/12/09 11:17:40;;;;;;;10.05;2.53;;;;;;;6.88;100.00;100145.75;6126905;23;20029;-81
2023/12/09 11:20:09;;;;;;;9.48;2.95;;;;;;;6.66;100.00;100103.44;6126730;23;20077;-82
2023/12/09 11:22:40;;;;;;;11.18;2.65;;;;;;;6.85;100.00;100134.81;6127062;23;20025;-82
2023/12/09 11:25:07;;;;;;;8.98;2.72;;;;;;;6.78;100.00;100113.81;6126770;23;20012;-83
2023/12/09 11:27:34;;;;;;;11.65;2.75;;;;;;;6.65;100.00;100089.78;6099075;23;20014;-83
2023/12/09 11:30:00;;;;;;;8.38;2.50;;;;;;;6.69;100.00;100086.16;6127638;23;20026;-84
2023/12/09 11:32:27;;;;;;;8.18;3.10;;;;;;;6.57;100.00;100064.56;6126878;23;20479;-81
2023/12/09 11:34:52;;;;;;;8.95;2.85;;;;;;;6.60;100.00;100051.59;6101371;23;20105;-81
2023/12/09 11:37:18;;;;;;;12.30;3.20;;;;;;;6.75;100.00;100054.97;6126775;23;20106;-80
2023/12/09 11:39:50;;;;;;;7.22;2.35;;;;;;;6.54;100.00;99998.06;6126956;23;20009;-81
2023/12/09 11:42:19;;;;;;;7.38;2.40;;;;;;;6.78;100.00;100028.28;6126274;23;20500;-79
2023/12/09 11:44:46;;;;;;;9.10;2.72;;;;;;;6.78;100.00;100028.28;6126763;23;20026;-79
2023/12/09 11:47:12;;;;;;;9.35;2.95;;;;;;;6.75;100.00;100001.09;6126156;23;20006;-82